Time;durP1;ratioP1;P1;durP2;ratioP2;P2;SDS_P1;SDS_P2;PMS_P1;PMS_P2;Temp;Humidity;BMP_temperature;BMP_pressure;BME280_temperature;BME280_humidity;BME280_pressure;Samples;Min_cycle;Max_cycle;Signal;HPM_P1;HPM_P2
2021/11/27 00:01:46;;;;;;;11.83;7.87;;;6.20;90.30;;;;;;1891425;76;21006;-52
2021/11/27 00:04:16;;;;;;;9.90;7.58;;;6.30;90.30;;;;;;1891434;76;21030;-54
2021/11/27 00:06:46;;;;;;;10.82;7.80;;;6.30;90.40;;;;;;1891556;76;21084;-53
2021/11/27 00:09:15;;;;;;;12.58;7.67;;;6.30;90.30;;;;;;1891463;76;21030;-53
2021/11/27 00:11:45;;;;;;;17.07;8.18;;;6.30;90.30;;;;;;1891435;76;21054;-50
2021/11/27 00:14:14;;;;;;;13.20;7.58;;;6.30;90.30;;;;;;1891471;76;21019;-49
2021/11/27 00:16:44;;;;;;;11.28;7.50;;;6.30;90.30;;;;;;1891573;76;21006;-52
2021/11/27 00:19:13;;;;;;;12.33;6.92;;;6.30;90.30;;;;;;1891636;76;21116;-51
2021/11/27 00:21:44;;;;;;;10.82;7.58;;;6.30;90.30;;;;;;1891644;76;21018;-49
2021/11/27 00:24:13;;;;;;;14.30;7.08;;;6.30;90.40;;;;;;1891617;76;20994;-50
2021/11/27 00:26:42;;;;;;;13.00;7.15;;;6.30;90.40;;;;;;1891670;75;21131;-50
2021/11/27 00:29:12;;;;;;;12.45;6.87;;;6.30;90.40;;;;;;1891655;76;21074;-51
2021/11/27 00:31:42;;;;;;;19.02;7.78;;;6.30;90.40;;;;;;1891735;75;21065;-51
2021/11/27 00:34:13;;;;;;;10.80;6.40;;;6.30;90.50;;;;;;1891574;76;21057;-49
2021/11/27 00:36:44;;;;;;;11.95;7.08;;;6.30;90.30;;;;;;1891593;76;21014;-50
2021/11/27 00:39:13;;;;;;;10.15;6.62;;;6.30;90.50;;;;;;1891489;76;21088;-51
2021/11/27 00:41:43;;;;;;;11.65;6.70;;;6.30;90.40;;;;;;1891596;75;21030;-49
2021/11/27 00:44:13;;;;;;;28.47;8.35;;;6.30;90.40;;;;;;1891632;76;21151;-51
2021/11/27 00:46:43;;;;;;;20.12;10.00;;;6.20;90.30;;;;;;1891673;76;21127;-53
2021/11/27 00:49:13;;;;;;;16.07;7.22;;;6.20;90.30;;;;;;1891550;75;21472;-52
2021/11/27 00:51:43;;;;;;;12.07;8.23;;;6.10;90.40;;;;;;1891500;76;21123;-50
2021/11/27 00:54:12;;;;;;;12.47;6.87;;;6.10;90.50;;;;;;1891585;76;21062;-54
2021/11/27 00:56:41;;;;;;;17.00;6.53;;;6.10;90.40;;;;;;1891515;76;21423;-49
2021/11/27 00:59:11;;;;;;;11.00;7.25;;;6.10;90.40;;;;;;1891521;76;21096;-52
2021/11/27 01:01:41;;;;;;;10.58;6.65;;;6.00;90.40;;;;;;1891658;75;21026;-51
2021/11/27 01:04:11;;;;;;;8.85;6.90;;;6.00;90.40;;;;;;1891466;75;21010;-52
2021/11/27 01:06:41;;;;;;;13.10;7.05;;;6.00;90.40;;;;;;1891629;76;21018;-54
2021/11/27 01:09:13;;;;;;;12.95;7.22;;;6.00;90.60;;;;;;1891514;76;21050;-53
2021/11/27 01:11:46;;;;;;;13.98;7.60;;;6.00;90.50;;;;;;1891661;76;21049;-49
2021/11/27 01:14:19;;;;;;;11.12;7.22;;;6.00;90.50;;;;;;1891558;76;21042;-53
2021/11/27 01:16:51;;;;;;;11.25;7.20;;;6.00;90.60;;;;;;1891652;75;21112;-48
2021/11/27 01:19:23;;;;;;;19.30;7.35;;;5.90;90.50;;;;;;1891597;76;21109;-51
2021/11/27 01:21:57;;;;;;;16.80;6.60;;;6.00;90.50;;;;;;1891699;76;21536;-54
2021/11/27 01:24:27;;;;;;;12.13;6.72;;;6.00;90.40;;;;;;1891563;75;21019;-52
2021/11/27 01:26:59;;;;;;;14.47;7.35;;;5.90;90.50;;;;;;1891536;76;21061;-50
2021/11/27 01:29:28;;;;;;;15.45;7.83;;;5.90;90.50;;;;;;1891643;75;21456;-50
2021/11/27 01:31:57;;;;;;;9.68;6.30;;;5.90;90.60;;;;;;1891621;76;21115;-51
2021/11/27 01:34:27;;;;;;;12.55;7.25;;;5.90;90.50;;;;;;1891519;76;21014;-52
2021/11/27 01:36:56;;;;;;;19.60;6.72;;;5.90;90.60;;;;;;1891548;76;21104;-50
2021/11/27 01:39:26;;;;;;;10.65;7.37;;;5.80;90.30;;;;;;1891486;75;21057;-49
2021/11/27 01:41:55;;;;;;;18.27;7.67;;;5.80;90.50;;;;;;1891545;75;21050;-54
2021/11/27 01:44:25;;;;;;;10.25;6.55;;;5.80;90.60;;;;;;1891533;76;21006;-49
2021/11/27 01:46:54;;;;;;;13.60;7.37;;;5.80;90.70;;;;;;1891604;75;21023;-50
2021/11/27 01:49:24;;;;;;;9.43;7.17;;;5.80;90.70;;;;;;1891640;76;21485;-50
2021/11/27 01:51:54;;;;;;;10.15;7.12;;;5.80;90.70;;;;;;1891566;75;21168;-51
2021/11/27 01:54:24;;;;;;;13.58;7.65;;;5.90;90.80;;;;;;1891468;76;21096;-51
2021/11/27 01:56:56;;;;;;;10.05;6.72;;;5.90;90.70;;;;;;1891573;76;21072;-51
2021/11/27 01:59:29;;;;;;;12.35;6.90;;;5.90;90.70;;;;;;1891475;76;21112;-53
2021/11/27 02:02:01;;;;;;;10.10;7.20;;;6.00;90.80;;;;;;1891112;75;21517;-51
2021/11/27 02:04:30;;;;;;;10.68;6.70;;;6.00;90.70;;;;;;1891526;76;21018;-53
2021/11/27 02:07:00;;;;;;;9.70;6.42;;;6.00;90.70;;;;;;1891612;76;21010;-53
2021/11/27 02:09:32;;;;;;;8.70;6.53;;;6.00;90.60;;;;;;1891611;75;21011;-50
2021/11/27 02:12:03;;;;;;;12.13;6.92;;;6.00;90.60;;;;;;1891730;76;21006;-50
2021/11/27 02:14:34;;;;;;;9.50;6.55;;;6.00;90.60;;;;;;1891672;76;21018;-52
2021/11/27 02:17:05;;;;;;;10.50;6.17;;;5.90;90.60;;;;;;1891704;75;21030;-50
2021/11/27 02:19:35;;;;;;;10.65;6.40;;;5.90;90.70;;;;;;1891623;76;21010;-51
2021/11/27 02:22:05;;;;;;;9.23;6.67;;;5.90;90.70;;;;;;1891636;76;21109;-50
2021/11/27 02:24:49;;;;;;;12.45;7.08;;;5.90;91.00;;;;;;1891457;75;21086;-50
2021/11/27 02:27:19;;;;;;;9.33;6.97;;;6.00;90.80;;;;;;1891507;76;21002;-49
2021/11/27 02:29:49;;;;;;;9.88;6.67;;;6.00;90.70;;;;;;1891466;76;21076;-51
2021/11/27 02:32:18;;;;;;;13.22;6.62;;;6.00;90.80;;;;;;1891586;76;21043;-49
2021/11/27 02:34:48;;;;;;;7.97;5.55;;;6.00;90.70;;;;;;1891534;75;21072;-50
2021/11/27 02:37:17;;;;;;;10.35;6.50;;;6.00;90.70;;;;;;1891489;76;21011;-52
2021/11/27 02:39:48;;;;;;;7.15;4.92;;;5.90;90.70;;;;;;1891423;75;21141;-53
2021/11/27 02:42:19;;;;;;;7.58;5.87;;;5.90;90.70;;;;;;1891485;75;21049;-50
2021/11/27 02:44:49;;;;;;;10.95;6.72;;;5.90;90.70;;;;;;1891439;76;21097;-51
2021/11/27 02:47:18;;;;;;;10.48;6.62;;;5.90;90.90;;;;;;1891579;75;21030;-51
2021/11/27 02:49:47;;;;;;;9.48;6.08;;;5.90;90.90;;;;;;1891504;76;21014;-52
2021/11/27 02:52:20;;;;;;;11.30;6.12;;;6.00;90.90;;;;;;1891540;76;21034;-52
2021/11/27 02:54:50;;;;;;;8.30;5.92;;;6.00;90.80;;;;;;1891462;76;21124;-52
2021/11/27 02:57:20;;;;;;;8.68;5.78;;;6.00;90.70;;;;;;1891601;75;20991;-53
2021/11/27 02:59:49;;;;;;;10.48;6.12;;;6.00;90.70;;;;;;1891461;76;20990;-49
2021/11/27 03:02:20;;;;;;;9.95;5.83;;;6.00;90.70;;;;;;1891611;75;21026;-51
2021/11/27 03:04:49;;;;;;;10.78;6.17;;;5.90;90.80;;;;;;1898437;75;21057;-50
2021/11/27 03:07:19;;;;;;;10.58;7.17;;;5.90;90.70;;;;;;1891505;76;21076;-51
2021/11/27 03:09:48;;;;;;;18.17;6.42;;;5.90;90.80;;;;;;1891584;76;21034;-49
2021/11/27 03:12:18;;;;;;;11.53;6.45;;;6.00;90.80;;;;;;1891484;75;21086;-53
2021/11/27 03:14:48;;;;;;;8.53;6.40;;;6.00;90.90;;;;;;1891475;76;21092;-54
2021/11/27 03:17:19;;;;;;;10.88;6.80;;;6.00;90.90;;;;;;1891620;76;21452;-51
2021/11/27 03:19:48;;;;;;;7.87;6.33;;;6.10;90.80;;;;;;1891433;76;21015;-50
2021/11/27 03:22:22;;;;;;;13.15;9.10;;;6.10;90.80;;;;;;1891529;76;21010;-53
2021/11/27 03:24:51;;;;;;;9.70;6.45;;;6.10;90.80;;;;;;1891607;76;21104;-53
2021/11/27 03:27:21;;;;;;;12.53;6.55;;;6.10;90.90;;;;;;1891616;76;21487;-52
2021/11/27 03:29:51;;;;;;;13.65;7.97;;;6.10;90.80;;;;;;1891486;75;21104;-54
2021/11/27 03:32:21;;;;;;;20.62;8.83;;;6.10;90.90;;;;;;1891466;76;21042;-53
2021/11/27 03:34:55;;;;;;;14.45;7.95;;;6.10;90.90;;;;;;1891229;75;21524;-50
2021/11/27 03:37:26;;;;;;;8.90;6.62;;;6.20;90.90;;;;;;1891501;75;21046;-50
2021/11/27 03:39:55;;;;;;;11.15;7.00;;;6.20;90.80;;;;;;1891587;76;21457;-52
2021/11/27 03:42:25;;;;;;;11.95;6.30;;;6.20;90.90;;;;;;1885002;76;21067;-51
2021/11/27 03:44:54;;;;;;;10.55;6.78;;;6.20;90.90;;;;;;1872847;77;20988;-49
2021/11/27 03:47:24;;;;;;;33.55;26.42;;;6.20;90.90;;;;;;1872867;76;21092;-52
2021/11/27 03:49:55;;;;;;;14.23;8.80;;;6.30;90.90;;;;;;1872831;76;21112;-50
2021/11/27 03:52:25;;;;;;;12.93;9.15;;;6.20;90.70;;;;;;1872912;76;21131;-51
2021/11/27 03:54:54;;;;;;;46.40;22.48;;;6.20;90.80;;;;;;1872841;77;21082;-49
2021/11/27 03:57:23;;;;;;;19.40;10.82;;;6.20;90.90;;;;;;1873057;76;20991;-51
2021/11/27 03:59:53;;;;;;;8.85;6.55;;;6.10;91.20;;;;;;1873074;77;21088;-52
2021/11/27 04:02:23;;;;;;;10.15;5.45;;;6.20;91.30;;;;;;1872917;76;21088;-52
2021/11/27 04:04:52;;;;;;;8.33;5.53;;;6.40;91.40;;;;;;1873123;76;21084;-50
2021/11/27 04:07:22;;;;;;;9.90;3.95;;;6.50;91.40;;;;;;1873058;77;20991;-51
2021/11/27 04:09:51;;;;;;;4.87;3.40;;;6.70;91.20;;;;;;1872807;76;20991;-53
2021/11/27 04:12:20;;;;;;;5.47;3.60;;;6.90;91.50;;;;;;1872867;76;21011;-50
2021/11/27 04:14:50;;;;;;;5.12;2.80;;;7.10;91.50;;;;;;1872916;77;21043;-52
2021/11/27 04:17:20;;;;;;;8.55;3.00;;;7.30;91.50;;;;;;1872818;76;21019;-54
2021/11/27 04:19:49;;;;;;;5.65;2.92;;;7.50;91.40;;;;;;1872829;76;21019;-51
2021/11/27 04:22:20;;;;;;;3.12;2.42;;;7.70;91.20;;;;;;1872777;76;21096;-52
2021/11/27 04:24:57;;;;;;;5.33;3.90;;;7.90;91.20;;;;;;1873355;76;21067;-51
2021/11/27 04:27:27;;;;;;;5.22;2.90;;;8.00;91.00;;;;;;1872912;77;21027;-50
2021/11/27 04:29:57;;;;;;;3.65;3.00;;;8.10;90.90;;;;;;1872865;77;21011;-50
2021/11/27 04:32:27;;;;;;;4.37;3.22;;;8.30;90.90;;;;;;1872820;77;21059;-52
2021/11/27 04:34:57;;;;;;;3.55;2.62;;;8.40;90.80;;;;;;1873286;76;21050;-50
2021/11/27 04:37:27;;;;;;;5.35;2.77;;;8.50;90.80;;;;;;1872819;77;21062;-52
2021/11/27 04:39:57;;;;;;;8.38;3.87;;;8.60;90.70;;;;;;1872862;77;20991;-51
2021/11/27 04:42:26;;;;;;;4.70;3.20;;;8.70;90.60;;;;;;1872800;77;21026;-49
2021/11/27 04:44:56;;;;;;;4.92;2.92;;;8.80;90.50;;;;;;1872838;77;21019;-50
2021/11/27 04:47:25;;;;;;;4.20;2.80;;;8.90;90.50;;;;;;1872893;76;21012;-52
2021/11/27 04:49:55;;;;;;;4.20;2.95;;;8.90;90.50;;;;;;1872772;76;21086;-50
2021/11/27 04:52:25;;;;;;;4.70;2.72;;;9.00;90.40;;;;;;1872868;77;21067;-52
2021/11/27 04:54:56;;;;;;;7.80;4.00;;;9.00;90.30;;;;;;1872825;77;21406;-50
2021/11/27 04:57:25;;;;;;;3.62;2.58;;;9.10;90.30;;;;;;1872810;76;21019;-51
2021/11/27 04:59:55;;;;;;;2.90;2.35;;;9.20;90.00;;;;;;1872693;76;21081;-53
2021/11/27 05:02:24;;;;;;;5.22;2.83;;;9.30;90.00;;;;;;1872736;77;21094;-52
2021/11/27 05:04:54;;;;;;;4.97;2.77;;;9.60;89.10;;;;;;1872871;76;21122;-51
2021/11/27 05:07:24;;;;;;;4.45;2.98;;;9.80;89.30;;;;;;1872913;77;21023;-49
2021/11/27 05:09:54;;;;;;;4.70;2.85;;;10.00;87.70;;;;;;1872794;77;21035;-54
2021/11/27 05:12:23;;;;;;;2.70;2.10;;;10.10;87.70;;;;;;1872847;76;21168;-51
2021/11/27 05:14:53;;;;;;;4.92;2.67;;;10.30;87.70;;;;;;1872835;76;21069;-52
2021/11/27 05:17:22;;;;;;;5.62;3.25;;;10.40;86.90;;;;;;1872905;77;21035;-49
2021/11/27 05:19:51;;;;;;;2.15;1.87;;;10.40;86.70;;;;;;1887124;76;21068;-52
2021/11/27 05:22:22;;;;;;;4.85;2.65;;;10.60;85.20;;;;;;1872886;76;21022;-53
2021/11/27 05:24:52;;;;;;;13.05;4.25;;;10.70;85.90;;;;;;1872817;76;21048;-50
2021/11/27 05:27:23;;;;;;;6.10;3.35;;;10.90;85.00;;;;;;1874578;76;21071;-52
2021/11/27 05:30:14;;;;;;;10.78;3.10;;;11.00;85.00;;;;;;1873361;76;21046;-54
2021/11/27 05:35:30;;;;;;;12.30;4.35;;;11.20;84.90;;;;;;1873114;76;21083;-50
2021/11/27 05:37:59;;;;;;;6.62;3.50;;;11.20;84.70;;;;;;1872329;77;21098;-53
2021/11/27 05:40:29;;;;;;;6.53;3.52;;;11.30;84.80;;;;;;1871307;76;21172;-51
2021/11/27 05:42:58;;;;;;;8.03;4.92;;;11.30;84.50;;;;;;1872030;76;21081;-53
2021/11/27 05:45:29;;;;;;;6.58;2.60;;;11.30;84.60;;;;;;1890627;76;21054;-51
2021/11/27 05:48:01;;;;;;;6.08;3.52;;;11.30;83.90;;;;;;1891455;76;21093;-53
2021/11/27 05:50:32;;;;;;;6.12;3.17;;;11.40;84.30;;;;;;1889415;75;21090;-50
2021/11/27 05:53:02;;;;;;;6.10;3.67;;;11.40;83.80;;;;;;1891601;75;21066;-50
2021/11/27 05:55:32;;;;;;;7.25;3.35;;;11.50;84.00;;;;;;1891548;76;21018;-54
2021/11/27 05:58:01;;;;;;;6.78;3.27;;;11.50;83.90;;;;;;1891534;76;21026;-53
2021/11/27 06:00:30;;;;;;;6.80;4.10;;;11.60;84.10;;;;;;1891582;76;21092;-50
2021/11/27 06:03:00;;;;;;;11.25;6.30;;;11.60;84.30;;;;;;1891488;76;21006;-53
2021/11/27 06:05:29;;;;;;;6.78;3.98;;;11.60;84.30;;;;;;1891628;76;21039;-52
2021/11/27 06:07:59;;;;;;;6.25;3.70;;;11.60;84.40;;;;;;1891561;76;21166;-51
2021/11/27 06:10:29;;;;;;;11.80;4.45;;;11.70;85.40;;;;;;1891424;76;21054;-52
2021/11/27 06:12:58;;;;;;;8.03;4.30;;;11.70;84.80;;;;;;1891433;76;21022;-50
2021/11/27 06:15:28;;;;;;;10.28;5.83;;;11.70;84.70;;;;;;1891399;76;21143;-54
2021/11/27 06:17:59;;;;;;;5.60;4.15;;;11.70;84.70;;;;;;1891439;76;21010;-54
2021/11/27 06:20:28;;;;;;;7.50;4.42;;;11.80;84.60;;;;;;1891440;76;21465;-52
2021/11/27 06:22:58;;;;;;;7.37;4.83;;;11.90;84.90;;;;;;1891473;76;21046;-53
2021/11/27 06:25:28;;;;;;;5.70;3.37;;;11.90;84.40;;;;;;1891411;76;21092;-54
2021/11/27 06:27:58;;;;;;;5.05;3.10;;;11.90;84.30;;;;;;1891566;76;21109;-54
2021/11/27 06:30:27;;;;;;;7.55;3.67;;;12.00;84.30;;;;;;1891459;76;21096;-55
2021/11/27 06:32:57;;;;;;;5.75;3.80;;;12.00;84.40;;;;;;1891534;76;21088;-53
2021/11/27 06:35:26;;;;;;;5.75;3.20;;;12.00;84.40;;;;;;1891436;76;21108;-53
2021/11/27 06:37:56;;;;;;;7.75;4.17;;;12.00;84.40;;;;;;1891562;76;21014;-54
2021/11/27 06:40:25;;;;;;;6.17;3.98;;;12.00;84.40;;;;;;1891414;76;21164;-53
2021/11/27 06:43:11;;;;;;;10.08;4.65;;;12.00;84.20;;;;;;1891237;75;21067;-50
2021/11/27 06:45:48;;;;;;;4.70;3.50;;;12.10;84.40;;;;;;1891712;75;21230;-53
2021/11/27 06:48:18;;;;;;;6.25;4.25;;;12.10;84.20;;;;;;1891458;76;20986;-50
2021/11/27 06:50:47;;;;;;;9.23;4.58;;;12.10;84.20;;;;;;1891550;76;21027;-52
2021/11/27 06:53:16;;;;;;;8.58;3.83;;;12.10;84.10;;;;;;1891597;76;21096;-53
2021/11/27 06:55:46;;;;;;;7.50;4.25;;;12.20;84.00;;;;;;1891482;76;21073;-50
2021/11/27 06:58:15;;;;;;;7.42;4.53;;;12.20;84.10;;;;;;1891457;76;21093;-51
2021/11/27 07:00:46;;;;;;;7.97;4.47;;;12.10;83.90;;;;;;1891842;75;21033;-50
2021/11/27 07:03:33;;;;;;;5.30;3.08;;;12.10;83.90;;;;;;1891398;76;21046;-51
2021/11/27 07:06:21;;;;;;;7.22;3.92;;;12.10;83.90;;;;;;1891498;76;21042;-52
2021/11/27 07:08:50;;;;;;;7.75;4.22;;;12.20;84.00;;;;;;1891378;76;21054;-53
2021/11/27 07:11:21;;;;;;;7.67;4.10;;;12.20;83.80;;;;;;1892330;75;21550;-53
2021/11/27 07:13:51;;;;;;;6.22;4.00;;;12.20;84.00;;;;;;1891464;76;21011;-51
2021/11/27 07:16:21;;;;;;;9.35;4.90;;;12.20;84.00;;;;;;1891571;76;21026;-50
2021/11/27 07:18:50;;;;;;;7.33;3.62;;;12.20;84.00;;;;;;1891456;76;21093;-52
2021/11/27 07:21:19;;;;;;;10.58;3.87;;;12.30;84.30;;;;;;1891531;76;20999;-54
2021/11/27 07:23:49;;;;;;;9.73;4.35;;;12.30;84.40;;;;;;1891505;76;21030;-53
2021/11/27 07:26:19;;;;;;;7.75;3.62;;;12.30;84.60;;;;;;1891583;76;21022;-54
2021/11/27 07:28:53;;;;;;;6.20;3.50;;;12.30;84.70;;;;;;1891221;75;21066;-52
2021/11/27 07:31:22;;;;;;;9.23;4.03;;;12.20;84.90;;;;;;1891429;76;21327;-50
2021/11/27 07:33:52;;;;;;;10.55;4.28;;;12.20;84.80;;;;;;1891491;76;21034;-54
2021/11/27 07:36:21;;;;;;;8.33;4.50;;;12.20;85.00;;;;;;1891457;76;21054;-53
2021/11/27 07:38:50;;;;;;;13.40;5.67;;;12.20;85.00;;;;;;1891300;76;21088;-54
2021/11/27 07:41:20;;;;;;;7.50;4.45;;;12.30;85.10;;;;;;1891377;76;21100;-53
2021/11/27 07:43:50;;;;;;;5.42;3.75;;;12.30;85.10;;;;;;1891307;76;21051;-51
2021/11/27 07:46:24;;;;;;;8.03;3.50;;;12.30;85.30;;;;;;1884109;75;21180;-53
2021/11/27 07:49:04;;;;;;;7.92;4.03;;;12.30;85.20;;;;;;1855179;77;21098;-54
2021/11/27 07:51:47;;;;;;;13.03;4.75;;;12.30;85.00;;;;;;1822054;76;21136;-53
2021/11/27 07:54:16;;;;;;;10.65;4.67;;;12.40;84.90;;;;;;1882178;76;21054;-53
2021/11/27 07:56:46;;;;;;;7.25;4.78;;;12.40;84.80;;;;;;1882123;76;21132;-53
2021/11/27 07:59:15;;;;;;;5.90;3.90;;;12.40;85.00;;;;;;1882255;76;21073;-53
2021/11/27 08:01:45;;;;;;;6.10;3.67;;;12.50;85.10;;;;;;1882131;75;21086;-50
2021/11/27 08:04:15;;;;;;;9.18;4.47;;;12.40;85.00;;;;;;1882153;76;21019;-54
2021/11/27 08:06:45;;;;;;;6.00;3.47;;;12.40;85.20;;;;;;1882181;76;21089;-54
2021/11/27 08:09:14;;;;;;;6.20;4.83;;;12.30;85.70;;;;;;1882132;76;21069;-53
2021/11/27 08:11:44;;;;;;;9.15;4.58;;;12.30;85.40;;;;;;1882250;75;21031;-53
2021/11/27 08:14:13;;;;;;;5.60;4.65;;;12.30;85.50;;;;;;1882167;76;21007;-51
2021/11/27 08:16:43;;;;;;;5.78;3.05;;;12.30;86.10;;;;;;1882145;76;21059;-53
2021/11/27 08:19:12;;;;;;;8.00;4.60;;;12.20;86.10;;;;;;1882247;76;21026;-53
2021/11/27 08:21:42;;;;;;;7.10;4.67;;;12.30;86.10;;;;;;1882061;76;21139;-53
2021/11/27 08:24:11;;;;;;;6.15;4.15;;;12.30;86.00;;;;;;1881982;76;21043;-52
2021/11/27 08:26:40;;;;;;;8.15;4.55;;;12.30;86.30;;;;;;1882020;76;21026;-54
2021/11/27 08:29:10;;;;;;;12.73;6.35;;;12.30;86.20;;;;;;1882033;76;21055;-52
2021/11/27 08:31:39;;;;;;;8.38;5.87;;;12.40;86.30;;;;;;1882054;76;21019;-53
2021/11/27 08:34:09;;;;;;;7.45;4.40;;;12.40;86.60;;;;;;1882218;76;21026;-53
2021/11/27 08:36:38;;;;;;;9.53;5.15;;;12.50;86.70;;;;;;1882145;76;21461;-53
2021/11/27 08:39:07;;;;;;;9.98;4.65;;;12.50;86.90;;;;;;1882365;76;21035;-53
2021/11/27 08:41:37;;;;;;;18.12;7.17;;;12.60;86.80;;;;;;1882241;76;21011;-52
2021/11/27 08:44:07;;;;;;;14.53;6.17;;;12.60;86.60;;;;;;1882126;76;21026;-51
2021/11/27 08:46:36;;;;;;;14.47;5.35;;;12.70;86.70;;;;;;1888878;76;21163;-53
2021/11/27 08:49:05;;;;;;;8.40;4.78;;;12.70;86.60;;;;;;1891388;76;21109;-53
2021/11/27 08:51:41;;;;;;;9.58;5.12;;;12.80;86.70;;;;;;1891424;76;21019;-54
2021/11/27 08:54:06;;;;;;;5.45;2.87;;;12.90;86.50;;;;;;1891118;75;21492;-54
2021/11/27 08:56:36;;;;;;;9.05;4.35;;;13.00;86.40;;;;;;1891455;76;21027;-53
2021/11/27 08:59:05;;;;;;;7.70;4.87;;;13.00;86.20;;;;;;1891448;76;21143;-53
2021/11/27 09:01:35;;;;;;;5.90;3.58;;;13.10;85.90;;;;;;1891501;76;21132;-52
2021/11/27 09:04:05;;;;;;;7.15;4.67;;;13.10;85.50;;;;;;1891413;75;21038;-52
2021/11/27 09:06:34;;;;;;;7.45;5.10;;;13.10;85.50;;;;;;1891483;76;21042;-53
2021/11/27 09:09:05;;;;;;;6.53;4.22;;;13.10;85.50;;;;;;1891448;75;20990;-53
2021/11/27 09:11:35;;;;;;;10.98;4.47;;;13.10;85.50;;;;;;1891431;76;20982;-54
2021/11/27 09:14:04;;;;;;;5.92;4.28;;;13.20;85.30;;;;;;1891380;76;21018;-53
2021/11/27 09:16:34;;;;;;;12.58;5.05;;;13.20;85.20;;;;;;1891371;76;21023;-51
2021/11/27 09:19:07;;;;;;;7.85;4.60;;;13.20;85.00;;;;;;1891628;76;21006;-50
2021/11/27 09:21:37;;;;;;;7.87;4.25;;;13.40;84.90;;;;;;1891364;75;21151;-51
2021/11/27 09:24:07;;;;;;;6.25;4.12;;;13.40;84.50;;;;;;1891334;76;21101;-50
2021/11/27 09:26:37;;;;;;;5.03;3.90;;;13.50;84.50;;;;;;1891555;76;21085;-50
2021/11/27 09:29:08;;;;;;;8.38;4.15;;;13.50;84.20;;;;;;1891586;76;21046;-51
2021/11/27 09:31:41;;;;;;;9.20;4.72;;;13.60;84.10;;;;;;1891523;75;21113;-54
2021/11/27 09:34:12;;;;;;;8.63;5.00;;;13.60;83.80;;;;;;1891293;76;21100;-51
2021/11/27 09:36:44;;;;;;;6.08;4.42;;;13.60;83.60;;;;;;1891396;76;21101;-53
2021/11/27 09:39:14;;;;;;;5.42;3.80;;;13.60;83.50;;;;;;1891500;76;21014;-52
2021/11/27 09:41:45;;;;;;;6.35;3.90;;;13.60;83.20;;;;;;1891596;76;21046;-54
2021/11/27 09:44:18;;;;;;;4.83;3.77;;;13.60;83.00;;;;;;1891468;75;21096;-52
2021/11/27 09:46:47;;;;;;;8.13;3.98;;;13.70;82.40;;;;;;1891525;76;21131;-51
2021/11/27 09:49:21;;;;;;;7.42;4.30;;;13.80;82.30;;;;;;1891498;76;20986;-52
2021/11/27 09:51:52;;;;;;;5.58;3.95;;;13.80;82.20;;;;;;1891498;76;21022;-53
2021/11/27 09:54:24;;;;;;;8.43;4.75;;;13.80;82.10;;;;;;1891623;76;21501;-50
2021/11/27 09:56:55;;;;;;;10.18;4.95;;;13.80;82.50;;;;;;1891599;76;21014;-54
2021/11/27 09:59:25;;;;;;;10.38;5.05;;;13.70;83.20;;;;;;1891473;76;20990;-53
2021/11/27 10:01:56;;;;;;;6.35;4.67;;;13.70;83.70;;;;;;1891519;76;21127;-53
2021/11/27 10:04:27;;;;;;;5.37;3.72;;;13.70;84.00;;;;;;1891595;76;21010;-53
2021/11/27 10:06:58;;;;;;;10.23;5.00;;;13.60;84.40;;;;;;1891677;76;21433;-52
2021/11/27 10:09:28;;;;;;;8.73;4.17;;;13.60;84.50;;;;;;1891723;76;21165;-53
2021/11/27 10:11:57;;;;;;;8.73;4.37;;;13.60;84.70;;;;;;1891781;76;21065;-53
2021/11/27 10:14:27;;;;;;;9.48;4.87;;;13.60;84.70;;;;;;1891566;76;21026;-54
2021/11/27 10:17:01;;;;;;;8.95;4.72;;;13.60;84.30;;;;;;1891705;75;21076;-51
2021/11/27 10:19:45;;;;;;;7.42;4.35;;;13.60;83.90;;;;;;1891775;76;21542;-53
2021/11/27 10:22:20;;;;;;;7.17;5.00;;;13.60;83.60;;;;;;1891551;76;20994;-54
2021/11/27 10:24:50;;;;;;;;;;;13.60;82.70;;;;;;1894477;75;21109;-54
2021/11/27 10:27:28;;;;;;;6.60;4.67;;;13.70;81.70;;;;;;1891580;76;20145;-55
2021/11/27 10:30:09;;;;;;;7.97;4.53;;;13.70;82.80;;;;;;1891614;76;21074;-54
2021/11/27 10:32:40;;;;;;;5.40;4.37;;;13.70;82.30;;;;;;1888898;75;20998;-51
2021/11/27 10:35:16;;;;;;;6.37;3.92;;;13.80;82.10;;;;;;1891547;76;21046;-53
2021/11/27 10:37:52;;;;;;;4.58;3.90;;;13.80;82.00;;;;;;1891444;76;21014;-54
2021/11/27 10:40:29;;;;;;;7.30;4.83;;;13.90;81.50;;;;;;1891400;76;21088;-53
2021/11/27 10:43:01;;;;;;;6.85;3.80;;;14.00;80.80;;;;;;1891265;76;21040;-53
2021/11/27 10:45:32;;;;;;;5.05;4.15;;;14.10;80.30;;;;;;1891382;76;21026;-52
2021/11/27 10:48:13;;;;;;;5.55;3.60;;;14.20;79.40;;;;;;1891472;76;21058;-53
2021/11/27 10:50:49;;;;;;;5.05;3.87;;;14.20;78.80;;;;;;1891605;76;21022;-53
2021/11/27 10:53:32;;;;;;;5.37;3.83;;;14.40;77.80;;;;;;1891500;75;21105;-53
2021/11/27 10:56:14;;;;;;;6.62;4.00;;;14.50;76.60;;;;;;1891554;76;21108;-52
2021/11/27 10:59:03;;;;;;;5.40;3.58;;;14.50;77.10;;;;;;1891604;76;21526;-54
2021/11/27 11:01:32;;;;;;;6.67;3.55;;;14.50;75.80;;;;;;1891511;76;21099;-53
2021/11/27 11:04:18;;;;;;;12.35;4.67;;;14.60;75.90;;;;;;1891410;76;21084;-54
2021/11/27 11:06:46;;;;;;;;;;;14.60;74.00;;;;;;1894271;76;21127;-54
2021/11/27 11:09:16;;;;;;;4.87;2.92;;;14.60;74.10;;;;;;1891472;76;20107;-55
2021/11/27 11:11:46;;;;;;;3.72;2.80;;;14.70;73.70;;;;;;1891570;76;21125;-54
2021/11/27 11:14:28;;;;;;;5.50;3.98;;;14.70;73.50;;;;;;1891620;76;21065;-54
2021/11/27 11:17:01;;;;;;;5.28;3.20;;;14.80;74.10;;;;;;1891408;76;21041;-53
2021/11/27 11:19:37;;;;;;;5.62;3.72;;;14.80;73.80;;;;;;1891546;76;21034;-53
2021/11/27 11:22:13;;;;;;;4.65;3.58;;;14.80;73.90;;;;;;1891522;75;21022;-54
2021/11/27 11:24:44;;;;;;;4.83;2.80;;;14.80;73.30;;;;;;1891598;76;21023;-53
2021/11/27 11:27:15;;;;;;;6.85;3.77;;;14.80;73.10;;;;;;1891439;75;21046;-55
2021/11/27 11:29:47;;;;;;;5.40;3.52;;;14.80;73.10;;;;;;1889574;75;20994;-54
2021/11/27 11:32:27;;;;;;;6.80;3.20;;;14.80;73.10;;;;;;1891470;75;21022;-53
2021/11/27 11:34:58;;;;;;;7.28;3.95;;;14.80;72.60;;;;;;1891569;76;21046;-55
2021/11/27 11:37:27;;;;;;;5.08;3.02;;;14.80;73.50;;;;;;1891378;76;21342;-55
2021/11/27 11:39:56;;;;;;;7.72;3.62;;;14.70;72.40;;;;;;1891384;75;21219;-53
2021/11/27 11:42:26;;;;;;;5.30;3.15;;;14.80;72.50;;;;;;1891312;76;21034;-52
2021/11/27 11:44:56;;;;;;;6.67;3.45;;;14.80;72.00;;;;;;1891519;76;21014;-54
2021/11/27 11:47:25;;;;;;;5.55;3.30;;;14.80;72.00;;;;;;1891537;76;21058;-53
2021/11/27 11:49:57;;;;;;;12.73;3.30;;;14.80;72.20;;;;;;1891590;76;20986;-54
2021/11/27 11:52:29;;;;;;;6.80;3.85;;;14.80;72.10;;;;;;1891548;75;21133;-54
2021/11/27 11:55:07;;;;;;;5.12;3.67;;;14.70;71.90;;;;;;1891687;76;21163;-53
2021/11/27 11:57:48;;;;;;;4.80;3.15;;;14.70;72.20;;;;;;1891675;76;21096;-54
2021/11/27 12:00:29;;;;;;;9.08;4.00;;;14.70;72.30;;;;;;1891727;76;21086;-53
2021/11/27 12:03:07;;;;;;;6.72;3.80;;;14.60;72.50;;;;;;1891506;76;21460;-50
2021/11/27 12:05:38;;;;;;;7.50;3.98;;;14.60;72.60;;;;;;1891496;76;20986;-53
2021/11/27 12:08:08;;;;;;;4.83;3.33;;;14.50;72.80;;;;;;1888558;76;21131;-54
2021/11/27 12:10:45;;;;;;;7.12;3.80;;;14.40;73.60;;;;;;1891628;76;21050;-53
2021/11/27 12:13:28;;;;;;;6.95;3.87;;;14.40;73.20;;;;;;1891610;76;21058;-54
2021/11/27 12:16:13;;;;;;;6.33;4.37;;;14.40;73.20;;;;;;1891717;76;21062;-53
2021/11/27 12:19:07;;;;;;;5.42;3.95;;;14.40;73.50;;;;;;1891780;76;20990;-53
2021/11/27 12:21:37;;;;;;;6.60;3.45;;;14.40;73.60;;;;;;1891488;76;21086;-54
2021/11/27 12:24:09;;;;;;;5.85;3.33;;;14.40;73.70;;;;;;1891611;76;21096;-55
2021/11/27 12:26:38;;;;;;;9.25;4.20;;;14.40;73.90;;;;;;1887943;75;21023;-53
2021/11/27 12:29:10;;;;;;;8.65;3.80;;;14.40;74.00;;;;;;1891552;76;21159;-54
2021/11/27 12:31:42;;;;;;;11.03;4.33;;;14.40;74.20;;;;;;1891562;76;21014;-55
2021/11/27 12:34:13;;;;;;;5.40;3.98;;;14.40;74.40;;;;;;1891579;76;21097;-54
2021/11/27 12:36:45;;;;;;;5.00;3.52;;;14.40;74.60;;;;;;1889180;75;21441;-53
2021/11/27 12:39:23;;;;;;;7.78;3.47;;;14.30;74.70;;;;;;1890865;75;21038;-55
2021/11/27 12:41:55;;;;;;;8.55;4.15;;;14.30;75.00;;;;;;1891469;76;21019;-55
2021/11/27 12:44:31;;;;;;;4.97;3.92;;;14.30;75.20;;;;;;1889349;75;21022;-55
2021/11/27 12:47:02;;;;;;;5.90;4.22;;;14.30;75.40;;;;;;1890138;75;21530;-55
2021/11/27 12:49:37;;;;;;;8.15;4.60;;;14.30;75.50;;;;;;1878725;76;21476;-55
2021/11/27 12:52:19;;;;;;;9.53;5.40;;;14.30;75.70;;;;;;1885080;76;21050;-53
2021/11/27 12:54:56;;;;;;;7.25;4.03;;;14.30;75.70;;;;;;1885008;76;21528;-53
2021/11/27 12:57:29;;;;;;;8.03;4.25;;;14.30;75.80;;;;;;1883909;76;21035;-54
2021/11/27 13:00:16;;;;;;;8.58;4.58;;;14.30;75.80;;;;;;1884884;76;21176;-52
2021/11/27 13:03:05;;;;;;;11.03;5.75;;;14.30;75.90;;;;;;1884940;75;21111;-53
2021/11/27 13:05:36;;;;;;;9.08;4.62;;;14.30;75.90;;;;;;1885162;76;21003;-55
2021/11/27 13:08:07;;;;;;;10.60;4.50;;;14.30;76.00;;;;;;1885042;76;21030;-55
2021/11/27 13:10:48;;;;;;;6.92;4.05;;;14.30;76.00;;;;;;1885049;75;21050;-55
2021/11/27 13:13:20;;;;;;;8.43;4.55;;;14.30;76.00;;;;;;1885113;76;21092;-56